Time;durP1;ratioP1;P1;durP2;ratioP2;P2;SDS_P1;SDS_P2;PMS_P1;PMS_P2;Temp;Humidity;BMP_temperature;BMP_pressure;BME280_temperature;BME280_humidity;BME280_pressure;Samples;Min_cycle;Max_cycle;Signal;HPM_P1;HPM_P2
2022/12/18 00:01:37;;;;;;;101.70;30.13;;;-3.70;99.90;;;;;;5105113;28;20114;-65
2022/12/18 00:04:05;;;;;;;97.13;28.95;;;-3.60;99.90;;;;;;5101100;28;20063;-63
2022/12/18 00:06:32;;;;;;;91.80;28.13;;;-3.60;99.90;;;;;;5091652;28;20027;-64
2022/12/18 00:09:00;;;;;;;101.07;29.63;;;-3.50;99.90;;;;;;5103236;28;20032;-64
2022/12/18 00:11:28;;;;;;;99.90;29.45;;;-3.50;99.90;;;;;;5106278;28;20039;-64
2022/12/18 00:13:55;;;;;;;96.30;28.20;;;-3.60;99.90;;;;;;5107965;28;20039;-64
2022/12/18 00:16:23;;;;;;;95.53;28.95;;;-3.60;99.90;;;;;;5098329;28;20047;-64
2022/12/18 00:18:50;;;;;;;101.03;28.50;;;-3.50;99.90;;;;;;5102067;28;20585;-64
2022/12/18 00:21:16;;;;;;;102.93;29.63;;;-3.50;99.90;;;;;;5102413;28;20368;-64
2022/12/18 00:23:43;;;;;;;103.28;27.90;;;-3.70;99.90;;;;;;5093456;28;20054;-65
2022/12/18 00:26:15;;;;;;;89.50;26.33;;;-3.70;99.90;;;;;;5092329;28;20398;-64
2022/12/18 00:28:41;;;;;;;103.65;28.30;;;-3.60;99.90;;;;;;5096288;28;20418;-64
2022/12/18 00:31:10;;;;;;;103.28;30.02;;;-3.60;99.90;;;;;;5078554;28;20044;-64
2022/12/18 00:33:36;;;;;;;97.93;29.05;;;-3.60;99.90;;;;;;5095515;28;20499;-64
2022/12/18 00:36:05;;;;;;;98.18;30.35;;;-3.60;99.90;;;;;;5098764;28;20039;-65
2022/12/18 00:38:31;;;;;;;104.43;28.77;;;-3.70;99.90;;;;;;5091107;28;20070;-64
2022/12/18 00:40:57;;;;;;;96.50;28.98;;;-3.70;99.90;;;;;;5098413;28;20116;-64
2022/12/18 00:43:23;;;;;;;95.30;27.75;;;-3.70;99.90;;;;;;5097857;28;20031;-63
2022/12/18 00:45:48;;;;;;;107.38;31.05;;;-3.70;99.90;;;;;;5105476;28;20428;-65
2022/12/18 00:48:14;;;;;;;104.07;29.92;;;-3.70;99.90;;;;;;5084457;28;20104;-64
2022/12/18 00:50:40;;;;;;;111.28;29.67;;;-3.70;99.90;;;;;;5104008;28;20035;-64
2022/12/18 00:53:06;;;;;;;106.40;29.25;;;-3.70;99.90;;;;;;5103466;28;20031;-64
2022/12/18 00:55:31;;;;;;;107.43;29.77;;;-3.70;99.90;;;;;;5103918;28;20039;-64
2022/12/18 00:57:57;;;;;;;104.22;31.27;;;-3.70;99.90;;;;;;5102961;28;20535;-64
2022/12/18 01:00:22;;;;;;;102.13;29.98;;;-3.70;99.90;;;;;;5087470;28;20486;-64
2022/12/18 01:02:48;;;;;;;112.32;30.65;;;-3.70;99.90;;;;;;5103831;28;20867;-65
2022/12/18 01:05:14;;;;;;;105.22;31.25;;;-3.70;99.90;;;;;;5084548;28;20040;-64
2022/12/18 01:07:40;;;;;;;113.38;31.95;;;-3.70;99.90;;;;;;5104765;28;20043;-64
2022/12/18 01:10:07;;;;;;;115.32;32.40;;;-3.70;99.90;;;;;;5078484;28;20044;-64
2022/12/18 01:12:33;;;;;;;106.43;31.98;;;-3.70;99.90;;;;;;5093440;28;20594;-63
2022/12/18 01:14:59;;;;;;;109.88;31.45;;;-3.60;99.90;;;;;;5087505;28;20386;-65
2022/12/18 01:17:24;;;;;;;116.15;31.45;;;-3.70;99.90;;;;;;5083719;28;20043;-65
2022/12/18 01:19:50;;;;;;;101.18;27.95;;;-3.80;99.90;;;;;;5081434;28;20179;-65
2022/12/18 01:22:15;;;;;;;112.25;33.42;;;-3.70;99.90;;;;;;5077563;28;20043;-64
2022/12/18 01:24:41;;;;;;;109.55;32.58;;;-3.70;99.90;;;;;;5099569;28;20028;-64
2022/12/18 01:27:07;;;;;;;103.30;32.30;;;-3.80;99.90;;;;;;5098724;28;20043;-64
2022/12/18 01:29:32;;;;;;;109.70;33.58;;;-3.80;99.90;;;;;;5096815;28;20039;-65
2022/12/18 01:31:58;;;;;;;110.22;33.28;;;-3.80;99.90;;;;;;5094444;28;20096;-64
2022/12/18 01:34:24;;;;;;;108.38;31.35;;;-3.80;99.90;;;;;;5094473;28;20031;-65
2022/12/18 01:36:51;;;;;;;104.32;31.88;;;-3.90;99.90;;;;;;5103228;28;20071;-65
2022/12/18 01:39:18;;;;;;;105.38;30.38;;;-3.90;99.90;;;;;;5101575;28;20039;-64
2022/12/18 01:42:02;;;;;;;111.93;32.25;;;-3.90;99.90;;;;;;5076488;28;20043;-65
2022/12/18 01:45:19;;;;;;;105.72;32.25;;;-4.00;99.90;;;;;;5079753;28;20099;-65
2022/12/18 01:47:47;;;;;;;110.82;32.42;;;-4.00;99.90;;;;;;5042822;28;20048;-64
2022/12/18 01:50:36;;;;;;;112.22;32.67;;;-4.00;99.90;;;;;;5098111;28;20732;-64
2022/12/18 01:53:07;;;;;;;103.03;34.33;;;-4.10;99.90;;;;;;5095985;28;20048;-64
2022/12/18 01:55:43;;;;;;;107.65;34.10;;;-4.10;99.90;;;;;;5074497;28;20090;-64
2022/12/18 01:58:09;;;;;;;103.15;31.23;;;-4.20;99.90;;;;;;5067777;28;20090;-63
2022/12/18 02:00:34;;;;;;;97.43;31.77;;;-4.20;99.90;;;;;;5097912;28;20483;-65
2022/12/18 02:03:00;;;;;;;104.45;31.63;;;-4.30;99.90;;;;;;5099702;28;20078;-64
2022/12/18 02:05:40;;;;;;;98.30;31.88;;;-4.40;99.90;;;;;;5077676;28;20479;-63
2022/12/18 02:08:30;;;;;;;92.28;29.38;;;-4.50;99.90;;;;;;5081289;28;20040;-65
2022/12/18 02:11:10;;;;;;;98.78;31.50;;;-4.50;99.90;;;;;;5085962;28;20154;-63
2022/12/18 02:13:40;;;;;;;;;;;-4.60;99.90;;;;;;5102655;28;20043;-64
2022/12/18 02:16:06;;;;;;;;;;;-4.60;99.90;;;;;;5101727;28;19920;-64
2022/12/18 02:18:40;;;;;;;95.95;29.27;;;-4.70;99.90;;;;;;5069333;28;19920;-64
2022/12/18 02:21:38;;;;;;;100.50;31.25;;;-4.70;99.90;;;;;;5099827;28;20454;-63
2022/12/18 02:24:34;;;;;;;101.03;29.40;;;-4.80;99.90;;;;;;5105883;28;20034;-64
2022/12/18 02:27:04;;;;;;;100.30;30.80;;;-4.90;99.90;;;;;;5096778;28;20028;-63
2022/12/18 02:29:37;;;;;;;95.07;29.73;;;-4.90;99.90;;;;;;5082579;28;20047;-64
2022/12/18 02:32:08;;;;;;;100.03;29.45;;;-5.00;99.90;;;;;;5092321;28;20479;-65
2022/12/18 02:34:37;;;;;;;93.70;29.27;;;-5.10;99.90;;;;;;5097630;28;20044;-65
2022/12/18 02:37:07;;;;;;;100.35;30.50;;;-5.10;99.90;;;;;;5091543;28;20048;-64
2022/12/18 02:39:36;;;;;;;97.38;29.90;;;-5.20;99.90;;;;;;5086259;28;20130;-63
2022/12/18 02:42:07;;;;;;;107.70;30.02;;;-5.10;99.90;;;;;;5100566;28;20126;-65
2022/12/18 02:44:46;;;;;;;100.22;31.42;;;-5.20;99.90;;;;;;5089546;28;20035;-64
2022/12/18 02:47:13;;;;;;;97.72;29.73;;;-5.20;99.90;;;;;;5084056;28;20058;-65
2022/12/18 02:49:57;;;;;;;92.53;29.27;;;-5.20;99.90;;;;;;5095780;28;20032;-64
2022/12/18 02:52:38;;;;;;;98.75;32.72;;;-5.20;99.90;;;;;;5084455;28;20398;-63
2022/12/18 02:55:46;;;;;;;101.65;29.67;;;-5.20;99.90;;;;;;5103194;28;20044;-65
2022/12/18 02:58:33;;;;;;;98.07;30.48;;;-5.20;99.90;;;;;;5051237;28;20043;-64
2022/12/18 03:01:06;;;;;;;88.13;28.13;;;-5.30;99.90;;;;;;5107131;28;20040;-63
2022/12/18 03:03:57;;;;;;;98.13;30.60;;;-5.30;99.90;;;;;;5104042;28;20085;-63
2022/12/18 03:06:22;;;;;;;98.13;30.08;;;-5.30;99.90;;;;;;5099077;28;20081;-64
2022/12/18 03:08:53;;;;;;;95.35;30.40;;;-5.30;99.90;;;;;;5103616;28;20039;-65
2022/12/18 03:12:22;;;;;;;92.40;29.30;;;-5.40;99.90;;;;;;5084253;28;20115;-65
2022/12/18 03:14:07;;;;;;;90.80;28.20;;;-5.40;99.90;;;;;;5084788;28;20075;-64
2022/12/18 03:16:34;;;;;;;92.93;27.65;;;-5.40;99.90;;;;;;5084831;28;20086;-64
2022/12/18 03:19:09;;;;;;;94.10;30.95;;;-5.40;99.90;;;;;;5083132;28;22919;-64
2022/12/18 03:21:51;;;;;;;88.22;27.48;;;-5.50;99.90;;;;;;5078960;28;20051;-63
2022/12/18 03:24:19;;;;;;;72.18;26.08;;;-5.50;99.90;;;;;;5080741;28;20036;-65
2022/12/18 03:26:47;;;;;;;76.60;27.05;;;-5.60;99.90;;;;;;5096827;28;20388;-65
2022/12/18 03:29:22;;;;;;;75.05;26.15;;;-5.60;99.90;;;;;;5100235;28;20096;-65
2022/12/18 03:31:53;;;;;;;81.03;26.67;;;-5.60;99.90;;;;;;5081192;28;20429;-65
2022/12/18 03:34:26;;;;;;;77.10;26.48;;;-5.60;99.90;;;;;;5101627;28;20036;-65
2022/12/18 03:36:51;;;;;;;82.80;28.23;;;-5.60;99.90;;;;;;5075798;28;20080;-64
2022/12/18 03:39:17;;;;;;;77.20;25.52;;;-5.60;99.90;;;;;;5079608;28;21268;-65
2022/12/18 03:41:45;;;;;;;78.15;26.60;;;-5.70;99.90;;;;;;5095522;28;20062;-63
2022/12/18 03:44:43;;;;;;;82.88;26.08;;;-5.70;99.90;;;;;;5080929;28;20043;-64
2022/12/18 03:47:22;;;;;;;71.15;24.95;;;-5.80;99.90;;;;;;5098093;28;20040;-65
2022/12/18 03:49:57;;;;;;;72.25;25.08;;;-5.80;99.90;;;;;;5103580;28;20076;-65
2022/12/18 03:52:28;;;;;;;72.88;25.00;;;-5.80;99.90;;;;;;5082763;28;20039;-64
2022/12/18 03:54:55;;;;;;;75.68;24.08;;;-5.80;99.90;;;;;;5102137;28;20039;-63
2022/12/18 03:57:24;;;;;;;63.65;22.83;;;-5.80;99.90;;;;;;5107333;28;20487;-65
2022/12/18 03:59:55;;;;;;;63.25;23.38;;;-5.80;99.90;;;;;;5101032;28;20048;-63
2022/12/18 04:02:23;;;;;;;58.72;23.65;;;-5.90;99.90;;;;;;5101340;28;20054;-64
2022/12/18 04:04:57;;;;;;;64.20;20.92;;;-5.90;99.90;;;;;;5098044;28;20138;-63
2022/12/18 04:07:23;;;;;;;57.17;21.20;;;-5.90;99.90;;;;;;5099055;28;20039;-63
2022/12/18 04:09:53;;;;;;;56.58;21.80;;;-5.90;99.90;;;;;;5084589;28;20821;-64
2022/12/18 04:12:18;;;;;;;59.67;21.40;;;-5.90;99.90;;;;;;5102300;28;20036;-64
2022/12/18 04:14:44;;;;;;;61.33;22.48;;;-5.90;99.90;;;;;;5084800;28;20051;-63
2022/12/18 04:17:10;;;;;;;61.55;21.73;;;-5.90;99.90;;;;;;5101458;28;20043;-63
2022/12/18 04:19:36;;;;;;;56.22;20.85;;;-5.80;99.90;;;;;;5107042;28;20092;-65
2022/12/18 04:22:01;;;;;;;52.63;21.88;;;-5.90;99.90;;;;;;5103618;28;20046;-64
2022/12/18 04:24:27;;;;;;;62.50;20.42;;;-5.90;99.90;;;;;;5100345;28;20050;-63
2022/12/18 04:26:52;;;;;;;53.85;21.00;;;-5.90;99.90;;;;;;5102101;28;20095;-63
2022/12/18 04:29:18;;;;;;;52.58;19.42;;;-6.00;99.90;;;;;;5083146;28;20089;-63
2022/12/18 04:31:44;;;;;;;54.08;21.15;;;-6.00;99.90;;;;;;5103045;28;20036;-63
2022/12/18 04:34:09;;;;;;;50.30;19.83;;;-6.00;99.90;;;;;;5088706;28;20048;-63
2022/12/18 04:36:35;;;;;;;49.70;20.15;;;-5.90;99.90;;;;;;5084660;28;20088;-64
2022/12/18 04:39:00;;;;;;;55.53;22.05;;;-6.00;99.90;;;;;;5094220;28;20378;-64
2022/12/18 04:41:26;;;;;;;51.22;20.45;;;-6.00;99.90;;;;;;5082623;28;20047;-63
2022/12/18 04:43:51;;;;;;;50.25;20.30;;;-6.00;99.90;;;;;;5096536;28;20142;-64
2022/12/18 04:46:17;;;;;;;50.88;21.45;;;-6.10;99.90;;;;;;5074462;28;20454;-64
2022/12/18 04:48:45;;;;;;;59.70;20.38;;;-6.10;99.90;;;;;;5103170;28;20098;-63
2022/12/18 04:51:11;;;;;;;60.95;20.88;;;-6.10;99.90;;;;;;5086740;28;20434;-63
2022/12/18 04:53:36;;;;;;;50.17;20.58;;;-6.10;99.90;;;;;;5097266;28;20032;-65
2022/12/18 04:56:13;;;;;;;51.63;18.90;;;-6.20;99.90;;;;;;5101465;28;20032;-63
2022/12/18 04:58:40;;;;;;;50.00;19.10;;;-6.20;99.90;;;;;;5097130;28;20059;-63
2022/12/18 05:01:07;;;;;;;55.08;21.27;;;-6.30;99.90;;;;;;5084745;28;20035;-63
2022/12/18 05:03:33;;;;;;;49.88;19.52;;;-6.30;99.90;;;;;;5083748;28;20032;-64
2022/12/18 05:06:00;;;;;;;55.42;19.48;;;-6.40;99.90;;;;;;5101934;28;20039;-63
2022/12/18 05:08:26;;;;;;;54.60;19.63;;;-6.40;99.90;;;;;;5097640;28;20032;-64
2022/12/18 05:11:12;;;;;;;52.80;19.92;;;-6.50;99.90;;;;;;5084803;28;20035;-65
2022/12/18 05:13:37;;;;;;;51.42;19.95;;;-6.50;99.90;;;;;;5082292;28;20123;-63
2022/12/18 05:16:04;;;;;;;50.53;19.42;;;-6.60;99.90;;;;;;5098292;28;20130;-64
2022/12/18 05:18:30;;;;;;;49.30;20.48;;;-6.60;99.90;;;;;;5099089;28;20043;-64
2022/12/18 05:20:55;;;;;;;45.40;17.75;;;-6.60;99.90;;;;;;5094323;28;20036;-64
2022/12/18 05:23:22;;;;;;;51.92;18.67;;;-6.70;99.90;;;;;;5097136;28;20126;-64
2022/12/18 05:25:56;;;;;;;50.20;19.05;;;-6.70;99.90;;;;;;5097255;28;20040;-63
2022/12/18 05:28:23;;;;;;;52.55;17.60;;;-6.70;99.90;;;;;;5075721;28;20240;-64
2022/12/18 05:30:54;;;;;;;55.50;19.67;;;-6.70;99.90;;;;;;5096760;28;20119;-63
2022/12/18 05:33:20;;;;;;;42.33;17.23;;;-6.70;99.90;;;;;;5075882;28;20368;-63
2022/12/18 05:36:01;;;;;;;55.40;18.88;;;-6.70;99.90;;;;;;5080976;28;20036;-63
2022/12/18 05:38:28;;;;;;;53.83;18.33;;;-6.80;99.90;;;;;;5085283;28;20036;-65
2022/12/18 05:40:53;;;;;;;50.92;18.67;;;-6.80;99.90;;;;;;5076995;28;20046;-65
2022/12/18 05:43:21;;;;;;;57.47;19.70;;;-6.90;99.90;;;;;;5098511;28;20039;-63
2022/12/18 05:45:47;;;;;;;53.63;18.85;;;-6.90;99.90;;;;;;5096836;28;20038;-63
2022/12/18 05:48:14;;;;;;;49.45;18.88;;;-7.00;99.90;;;;;;5100347;28;20080;-63
2022/12/18 05:50:42;;;;;;;48.15;18.20;;;-7.00;99.90;;;;;;5103424;28;20039;-65
2022/12/18 05:53:08;;;;;;;51.80;18.63;;;-7.10;99.90;;;;;;5084735;28;20142;-62
2022/12/18 05:55:38;;;;;;;52.67;18.88;;;-7.10;99.90;;;;;;5107156;28;20400;-63
2022/12/18 05:58:06;;;;;;;55.85;19.30;;;-7.10;99.90;;;;;;5106354;28;20075;-63
2022/12/18 06:00:33;;;;;;;52.10;17.65;;;-7.20;99.90;;;;;;5101527;28;20154;-63
2022/12/18 06:02:59;;;;;;;49.78;17.92;;;-7.30;99.90;;;;;;5079180;28;20328;-64
2022/12/18 06:05:25;;;;;;;56.35;20.15;;;-7.20;99.90;;;;;;5100646;28;20032;-63
2022/12/18 06:07:51;;;;;;;54.25;19.05;;;-7.30;99.90;;;;;;5083229;28;22021;-63
2022/12/18 06:10:16;;;;;;;47.28;18.45;;;-7.40;99.90;;;;;;5099675;28;20044;-65
2022/12/18 06:12:42;;;;;;;51.75;19.65;;;-7.30;99.90;;;;;;5105382;28;20042;-63
2022/12/18 06:15:08;;;;;;;44.35;19.67;;;-7.40;99.90;;;;;;5103480;28;20055;-63
2022/12/18 06:17:34;;;;;;;51.88;17.90;;;-7.40;99.90;;;;;;5105820;28;20961;-64
2022/12/18 06:20:00;;;;;;;47.97;17.67;;;-7.40;99.90;;;;;;5108809;28;20042;-63
2022/12/18 06:22:26;;;;;;;47.28;17.15;;;-7.50;99.90;;;;;;5092306;28;20063;-63
2022/12/18 06:24:52;;;;;;;45.92;17.58;;;-7.50;99.90;;;;;;5112057;28;20067;-63
2022/12/18 06:27:18;;;;;;;48.47;19.15;;;-7.50;99.90;;;;;;5102975;28;20036;-63
2022/12/18 06:29:43;;;;;;;47.63;18.55;;;-7.50;99.90;;;;;;5102321;28;20051;-65
2022/12/18 06:32:09;;;;;;;51.90;19.30;;;-7.60;99.90;;;;;;5087290;28;20040;-63
2022/12/18 06:34:36;;;;;;;48.47;17.73;;;-7.60;99.90;;;;;;5084385;28;20027;-65
2022/12/18 06:37:02;;;;;;;42.70;16.50;;;-7.70;99.90;;;;;;5099654;28;20036;-63
2022/12/18 06:39:28;;;;;;;44.95;16.95;;;-7.60;99.90;;;;;;5082878;28;20058;-65
2022/12/18 06:41:54;;;;;;;47.45;19.00;;;-7.60;99.90;;;;;;5086723;28;20290;-63
2022/12/18 06:44:19;;;;;;;47.22;17.35;;;-7.60;99.90;;;;;;5102182;28;20066;-63
2022/12/18 06:46:45;;;;;;;49.28;17.75;;;-7.60;99.90;;;;;;5086375;28;20114;-63
2022/12/18 06:49:10;;;;;;;46.42;18.13;;;-7.60;99.90;;;;;;5105450;28;20035;-63
2022/12/18 06:51:36;;;;;;;44.85;17.08;;;-7.60;99.90;;;;;;5104076;28;20028;-64
2022/12/18 06:54:02;;;;;;;50.70;17.92;;;-7.60;99.90;;;;;;5107312;28;20039;-64
2022/12/18 06:56:28;;;;;;;42.58;17.42;;;-7.60;99.90;;;;;;5108315;28;20027;-63
2022/12/18 06:58:54;;;;;;;48.35;18.33;;;-7.70;99.90;;;;;;5108509;28;20471;-63
2022/12/18 07:01:20;;;;;;;45.47;16.77;;;-7.70;99.90;;;;;;5089442;28;20047;-64
2022/12/18 07:03:46;;;;;;;43.47;17.05;;;-7.70;99.90;;;;;;5104215;28;20039;-63
2022/12/18 07:06:17;;;;;;;44.97;17.00;;;-7.70;99.90;;;;;;5083856;28;20062;-65
2022/12/18 07:08:44;;;;;;;48.17;17.63;;;-7.70;99.90;;;;;;5096749;28;20032;-65
2022/12/18 07:11:09;;;;;;;41.42;17.05;;;-7.70;99.90;;;;;;5099982;28;20491;-63
2022/12/18 07:13:35;;;;;;;41.08;18.25;;;-7.70;99.90;;;;;;5090503;28;20035;-63
2022/12/18 07:16:06;;;;;;;45.47;17.30;;;-7.70;99.90;;;;;;5083182;28;20060;-63
2022/12/18 07:18:31;;;;;;;42.58;16.48;;;-7.70;99.90;;;;;;5081046;28;20042;-63
2022/12/18 07:20:57;;;;;;;44.88;17.92;;;-7.80;99.90;;;;;;5098133;28;20035;-63
2022/12/18 07:23:22;;;;;;;43.50;17.33;;;-7.70;99.90;;;;;;5080662;28;20043;-63
2022/12/18 07:25:48;;;;;;;46.50;17.35;;;-7.70;99.90;;;;;;5096842;28;20032;-65
2022/12/18 07:28:14;;;;;;;43.90;17.10;;;-7.70;99.90;;;;;;5079702;28;20451;-64
2022/12/18 07:30:40;;;;;;;42.45;16.90;;;-7.70;99.90;;;;;;5094190;28;20158;-63
2022/12/18 07:33:05;;;;;;;38.40;16.13;;;-7.70;99.90;;;;;;5083719;28;20131;-64
2022/12/18 07:35:32;;;;;;;40.85;18.42;;;-7.60;99.90;;;;;;5096921;28;20040;-65
2022/12/18 07:38:01;;;;;;;48.90;17.63;;;-7.60;99.90;;;;;;5062655;28;20345;-63
2022/12/18 07:40:26;;;;;;;42.65;17.55;;;-7.60;99.90;;;;;;5077434;28;20082;-65
2022/12/18 07:42:52;;;;;;;39.08;16.75;;;-7.60;99.90;;;;;;5094700;28;20122;-64
2022/12/18 07:45:17;;;;;;;41.65;17.25;;;-7.60;99.90;;;;;;5097089;28;20044;-63
2022/12/18 07:47:43;;;;;;;44.15;17.30;;;-7.50;99.90;;;;;;5082402;28;20088;-66
2022/12/18 07:50:09;;;;;;;43.25;16.70;;;-7.50;99.90;;;;;;5077580;28;20057;-64
2022/12/18 07:52:34;;;;;;;40.58;16.33;;;-7.50;99.90;;;;;;5082673;28;20059;-64
2022/12/18 07:55:00;;;;;;;39.03;17.02;;;-7.50;99.90;;;;;;5104773;28;20063;-63
2022/12/18 07:57:25;;;;;;;48.65;17.73;;;-7.50;99.90;;;;;;5101535;28;20047;-63
2022/12/18 07:59:51;;;;;;;46.05;17.73;;;-7.40;99.90;;;;;;5099404;28;20040;-63
2022/12/18 08:02:16;;;;;;;38.85;16.98;;;-7.40;99.90;;;;;;5086686;28;20044;-64
2022/12/18 08:04:42;;;;;;;43.55;17.17;;;-7.40;99.90;;;;;;5083364;28;20058;-64
2022/12/18 08:07:07;;;;;;;45.83;17.58;;;-7.40;99.90;;;;;;5072997;28;20045;-63
2022/12/18 08:09:33;;;;;;;38.58;15.88;;;-7.40;99.90;;;;;;5068325;28;20043;-65
2022/12/18 08:11:58;;;;;;;48.40;18.45;;;-7.30;99.90;;;;;;5067573;28;20035;-62
2022/12/18 08:14:24;;;;;;;50.92;19.90;;;-7.30;99.90;;;;;;5089501;28;20494;-64
2022/12/18 08:16:50;;;;;;;43.63;16.70;;;-7.20;99.90;;;;;;5090997;28;20138;-63
2022/12/18 08:19:15;;;;;;;41.53;17.20;;;-7.20;99.90;;;;;;5087130;28;20039;-63
2022/12/18 08:21:41;;;;;;;38.47;14.77;;;-7.20;99.90;;;;;;5083897;28;20475;-64
2022/12/18 08:24:08;;;;;;;35.88;15.88;;;-7.10;99.90;;;;;;5096074;28;20043;-65
2022/12/18 08:26:34;;;;;;;37.67;15.18;;;-7.10;99.90;;;;;;5087441;28;20118;-63
2022/12/18 08:29:00;;;;;;;40.08;17.13;;;-7.00;99.90;;;;;;5109978;28;20134;-63
2022/12/18 08:31:27;;;;;;;41.35;17.52;;;-7.00;99.90;;;;;;5088692;28;20043;-64
2022/12/18 08:33:54;;;;;;;41.13;17.65;;;-6.90;99.90;;;;;;5105371;28;20428;-64
2022/12/18 08:36:20;;;;;;;40.97;16.48;;;-6.90;99.90;;;;;;5105214;28;20036;-63
2022/12/18 08:38:46;;;;;;;36.95;16.30;;;-6.80;99.90;;;;;;5105854;28;20084;-64
2022/12/18 08:41:14;;;;;;;36.53;15.32;;;-6.70;99.90;;;;;;5085715;28;20036;-63
2022/12/18 08:46:26;;;;;;;33.20;15.40;;;-6.60;99.90;;;;;;5104662;28;20035;-63
2022/12/18 08:48:53;;;;;;;36.20;15.82;;;-6.60;99.90;;;;;;5089740;28;20044;-63
2022/12/18 08:51:19;;;;;;;30.08;14.65;;;-6.50;99.90;;;;;;5088220;28;20052;-64
2022/12/18 08:53:45;;;;;;;33.78;15.00;;;-6.50;99.90;;;;;;5100167;28;20478;-63
2022/12/18 08:56:11;;;;;;;31.92;14.45;;;-6.40;99.90;;;;;;5086965;28;20071;-63
2022/12/18 08:58:37;;;;;;;30.67;14.98;;;-6.30;99.90;;;;;;5108192;28;20067;-63
2022/12/18 09:01:04;;;;;;;34.25;15.65;;;-6.20;99.90;;;;;;5085791;28;20063;-64
2022/12/18 09:03:30;;;;;;;33.40;14.65;;;-6.20;99.90;;;;;;5110038;28;20043;-65
2022/12/18 09:05:56;;;;;;;31.48;13.77;;;-6.10;99.90;;;;;;5104073;28;21748;-63
2022/12/18 09:08:21;;;;;;;31.58;14.38;;;-6.10;99.90;;;;;;5105861;28;20040;-64
2022/12/18 09:10:49;;;;;;;35.80;15.98;;;-6.00;99.90;;;;;;5097628;28;20047;-64
2022/12/18 09:13:16;;;;;;;31.77;14.38;;;-5.90;99.90;;;;;;5085947;28;20038;-66
2022/12/18 09:15:48;;;;;;;25.70;12.70;;;-5.90;99.90;;;;;;5087798;28;20058;-64
2022/12/18 09:18:15;;;;;;;32.35;14.27;;;-5.80;99.90;;;;;;5084540;28;20047;-64
2022/12/18 09:20:41;;;;;;;31.58;13.85;;;-5.70;99.90;;;;;;5092604;28;20066;-64
2022/12/18 09:23:06;;;;;;;27.52;13.35;;;-5.60;99.90;;;;;;5103653;28;20081;-64
2022/12/18 09:25:35;;;;;;;25.15;12.95;;;-5.50;99.90;;;;;;5076145;28;20563;-63
2022/12/18 09:28:05;;;;;;;30.88;12.57;;;-5.50;99.90;;;;;;5080573;28;20055;-64
2022/12/18 09:30:33;;;;;;;26.17;12.90;;;-5.30;99.90;;;;;;5103811;28;20107;-64
2022/12/18 09:32:58;;;;;;;25.63;12.48;;;-5.30;99.90;;;;;;5107145;28;20114;-64
2022/12/18 09:35:24;;;;;;;27.38;13.10;;;-5.20;99.90;;;;;;5093275;28;20047;-65
2022/12/18 09:37:50;;;;;;;24.65;12.38;;;-5.10;99.90;;;;;;5078649;28;20479;-65
2022/12/18 09:40:22;;;;;;;28.15;12.50;;;-4.90;99.90;;;;;;5078804;28;20050;-64
2022/12/18 09:42:57;;;;;;;27.83;13.10;;;-4.80;99.90;;;;;;5107238;28;20043;-64
2022/12/18 09:45:23;;;;;;;26.15;12.02;;;-4.80;99.90;;;;;;5083147;28;20040;-64
2022/12/18 09:47:52;;;;;;;22.67;12.00;;;-4.60;99.90;;;;;;5095773;28;20031;-65
2022/12/18 09:50:27;;;;;;;23.60;12.43;;;-4.60;99.90;;;;;;5084560;28;20095;-66
2022/12/18 09:52:57;;;;;;;24.55;12.00;;;-4.50;99.90;;;;;;5105041;28;20141;-65
2022/12/18 09:55:37;;;;;;;27.17;11.88;;;-4.30;99.90;;;;;;5088444;28;20051;-65
2022/12/18 09:58:09;;;;;;;22.13;10.40;;;-4.20;99.90;;;;;;5070258;28;20047;-64
2022/12/18 10:00:35;;;;;;;22.75;10.63;;;-4.10;99.90;;;;;;5105092;28;20039;-64
2022/12/18 10:03:08;;;;;;;23.17;10.50;;;-4.00;99.90;;;;;;5080821;28;21040;-65
2022/12/18 10:05:48;;;;;;;24.42;10.98;;;-3.90;99.90;;;;;;5104444;28;20044;-64
2022/12/18 10:08:26;;;;;;;22.13;10.75;;;-3.90;99.90;;;;;;5075311;28;20048;-64
2022/12/18 10:10:57;;;;;;;21.60;10.32;;;-3.80;99.90;;;;;;5090487;28;20039;-64
2022/12/18 10:13:33;;;;;;;19.73;9.50;;;-3.80;99.90;;;;;;5099991;28;20126;-64
2022/12/18 10:16:03;;;;;;;22.50;10.30;;;-3.80;99.90;;;;;;5103916;28;20122;-66
2022/12/18 10:19:11;;;;;;;23.00;10.27;;;-3.80;99.90;;;;;;5088663;28;20040;-64
2022/12/18 10:21:53;;;;;;;20.38;9.68;;;-3.90;99.90;;;;;;5104685;28;20044;-64
2022/12/18 10:24:27;;;;;;;18.55;9.57;;;-3.90;99.90;;;;;;5091035;28;20402;-66
2022/12/18 10:27:00;;;;;;;23.17;11.18;;;-3.90;99.90;;;;;;5110155;28;20047;-64
2022/12/18 10:29:26;;;;;;;18.83;9.63;;;-3.90;99.90;;;;;;5085794;28;20092;-65
2022/12/18 10:31:51;;;;;;;18.80;9.07;;;-3.90;99.90;;;;;;5092771;28;20036;-66
2022/12/18 10:34:17;;;;;;;18.20;9.32;;;-3.90;99.90;;;;;;5088891;28;20047;-65
2022/12/18 10:36:42;;;;;;;16.58;8.93;;;-3.80;99.90;;;;;;5085692;28;20040;-65
2022/12/18 10:39:22;;;;;;;18.33;9.40;;;-3.90;99.90;;;;;;5109369;28;20044;-65
2022/12/18 10:41:48;;;;;;;17.40;8.73;;;-3.80;99.90;;;;;;5102120;28;20047;-64
2022/12/18 10:44:26;;;;;;;15.95;8.35;;;-3.80;99.90;;;;;;5106228;28;20043;-66
2022/12/18 10:47:03;;;;;;;17.70;8.63;;;-3.70;99.90;;;;;;5090860;28;20051;-66
2022/12/18 10:49:32;;;;;;;17.70;7.85;;;-3.60;99.90;;;;;;5087864;28;20032;-64
2022/12/18 10:52:15;;;;;;;14.85;9.13;;;-3.50;99.90;;;;;;5090822;28;20044;-65
2022/12/18 10:54:51;;;;;;;17.65;9.15;;;-3.40;99.90;;;;;;5106623;28;20170;-65
2022/12/18 10:57:25;;;;;;;17.00;8.43;;;-3.40;99.90;;;;;;5086183;28;20035;-66
2022/12/18 10:59:54;;;;;;;16.65;8.65;;;-3.40;99.90;;;;;;5085119;28;20051;-65
2022/12/18 11:02:33;;;;;;;17.67;7.57;;;-3.30;99.90;;;;;;5061792;28;20088;-66
2022/12/18 11:04:59;;;;;;;15.15;8.05;;;-3.20;99.90;;;;;;5082326;28;20179;-64
2022/12/18 11:07:25;;;;;;;14.05;7.75;;;-3.10;99.90;;;;;;5083483;28;20060;-64
2022/12/18 11:10:01;;;;;;;17.52;8.15;;;-3.00;99.90;;;;;;5087164;28;20039;-65
2022/12/18 11:12:28;;;;;;;14.57;7.90;;;-2.90;99.90;;;;;;5073416;28;20040;-66
2022/12/18 11:14:59;;;;;;;20.92;8.18;;;-2.70;99.90;;;;;;5101706;28;20054;-64
2022/12/18 11:17:31;;;;;;;12.98;7.50;;;-2.70;99.90;;;;;;5089682;28;20074;-65
2022/12/18 11:20:00;;;;;;;14.07;7.43;;;-2.60;99.90;;;;;;5086802;28;20031;-64
2022/12/18 11:22:34;;;;;;;15.23;7.40;;;-2.50;99.90;;;;;;5063366;28;20047;-66
2022/12/18 11:25:06;;;;;;;16.27;8.45;;;-2.50;99.90;;;;;;5091973;28;20078;-66
2022/12/18 11:27:32;;;;;;;16.52;7.35;;;-2.40;99.90;;;;;;5090799;28;20044;-66
2022/12/18 11:30:25;;;;;;;14.75;8.43;;;-2.40;99.90;;;;;;5060705;28;20044;-65
2022/12/18 11:33:03;;;;;;;17.15;7.60;;;-2.30;99.90;;;;;;5087058;28;20043;-65
2022/12/18 11:35:38;;;;;;;14.00;7.55;;;-2.20;99.90;;;;;;5087983;28;20491;-64
2022/12/18 11:38:30;;;;;;;14.25;6.80;;;-2.20;99.90;;;;;;5067366;28;20040;-64
2022/12/18 11:41:01;;;;;;;15.45;7.53;;;-2.10;99.90;;;;;;5097037;28;20652;-65
2022/12/18 11:43:33;;;;;;;12.27;6.68;;;-2.10;99.90;;;;;;5109940;28;20032;-65
2022/12/18 11:46:14;;;;;;;15.07;7.78;;;-2.00;99.90;;;;;;5111250;28;20042;-65
2022/12/18 11:48:46;;;;;;;10.70;6.40;;;-2.00;99.90;;;;;;5111480;28;20028;-64
2022/12/18 11:51:22;;;;;;;12.27;6.65;;;-2.00;99.90;;;;;;5094306;28;20475;-65
2022/12/18 11:53:48;;;;;;;12.23;6.50;;;-2.00;99.90;;;;;;5086563;28;20048;-66
2022/12/18 11:56:22;;;;;;;13.00;6.72;;;-2.00;99.90;;;;;;5094215;28;20039;-64
2022/12/18 11:59:17;;;;;;;14.40;6.57;;;-2.00;99.90;;;;;;5104889;28;20046;-66
2022/12/18 12:01:51;;;;;;;12.07;6.80;;;-1.90;99.90;;;;;;5077082;28;20050;-65
2022/12/18 12:04:22;;;;;;;13.05;6.43;;;-1.90;99.90;;;;;;5087883;28;20061;-65
2022/12/18 12:07:17;;;;;;;12.68;6.57;;;-1.90;99.90;;;;;;5093159;28;20455;-65
2022/12/18 12:10:01;;;;;;;11.07;6.10;;;-1.80;99.90;;;;;;5088779;28;20042;-64
2022/12/18 12:12:49;;;;;;;12.18;5.95;;;-1.80;99.90;;;;;;5092710;28;20429;-64
2022/12/18 12:15:26;;;;;;;13.60;6.10;;;-1.80;99.90;;;;;;5077879;28;20083;-65
2022/12/18 12:17:55;;;;;;;8.93;5.30;;;-1.70;99.90;;;;;;5094099;28;20417;-64
2022/12/18 12:20:27;;;;;;;12.73;5.47;;;-1.60;99.90;;;;;;5072770;28;20070;-65
2022/12/18 12:23:06;;;;;;;12.02;6.03;;;-1.60;99.90;;;;;;5112846;28;20047;-66
2022/12/18 12:25:43;;;;;;;10.38;6.03;;;-1.60;99.90;;;;;;5093113;28;20588;-66
2022/12/18 12:28:46;;;;;;;9.77;5.20;;;-1.60;99.90;;;;;;5092605;28;20051;-65
2022/12/18 12:31:29;;;;;;;11.65;5.93;;;-1.50;99.90;;;;;;5099240;28;20068;-66
2022/12/18 12:34:03;;;;;;;14.95;6.03;;;-1.50;99.90;;;;;;5092628;28;20068;-66
2022/12/18 12:36:54;;;;;;;8.63;5.50;;;-1.50;99.90;;;;;;5109499;28;20039;-66
2022/12/18 12:39:26;;;;;;;8.43;5.00;;;-1.40;99.90;;;;;;5110553;28;20048;-66
2022/12/18 12:44:47;;;;;;;11.38;5.60;;;-1.40;99.90;;;;;;5112171;28;20067;-65
2022/12/18 12:47:28;;;;;;;11.85;6.38;;;-1.30;99.90;;;;;;5112249;28;20031;-66
2022/12/18 12:49:54;;;;;;;11.90;5.28;;;-1.30;99.90;;;;;;5092389;28;20040;-66